Time;durP1;ratioP1;P1;durP2;ratioP2;P2;SDS_P1;SDS_P2;PMS_P1;PMS_P2;Temp;Humidity;BMP_temperature;BMP_pressure;BME280_temperature;BME280_humidity;BME280_pressure;Samples;Min_cycle;Max_cycle;Signal;HPM_P1;HPM_P2
2023/06/07 00:04:06;;;;;;;4.95;2.03;;;;;;;12.61;74.82;100993.59;10326271;28;20038;-78
2023/06/07 00:09:09;;;;;;;4.47;1.98;;;;;;;12.63;73.88;100992.22;10326114;28;20042;-78
2023/06/07 00:14:11;;;;;;;4.32;2.00;;;;;;;12.68;75.48;100988.63;10308580;28;20039;-78
2023/06/07 00:19:15;;;;;;;3.63;2.15;;;;;;;12.71;76.18;100977.03;10322371;28;20042;-78
2023/06/07 00:24:17;;;;;;;4.32;1.38;;;;;;;12.70;73.30;100985.56;10318387;28;20649;-78
2023/06/07 00:29:19;;;;;;;5.35;2.10;;;;;;;12.69;71.89;100973.75;10278594;28;20449;-78
2023/06/07 00:34:22;;;;;;;3.10;1.90;;;;;;;12.66;70.54;100980.63;10323827;28;20058;-78
2023/06/07 00:39:24;;;;;;;5.95;2.05;;;;;;;12.63;71.06;100972.94;10306216;28;20166;-78
2023/06/07 00:44:27;;;;;;;3.75;2.13;;;;;;;12.62;72.53;100956.69;10305284;28;20066;-77
2023/06/07 00:49:29;;;;;;;3.20;2.10;;;;;;;12.60;73.92;100969.94;10305995;28;20042;-78
2023/06/07 00:54:32;;;;;;;3.22;2.00;;;;;;;12.58;73.84;100961.97;10319388;28;20070;-78
2023/06/07 00:59:35;;;;;;;3.97;1.95;;;;;;;12.65;72.97;100973.47;10317222;28;20584;-78
2023/06/07 01:04:39;;;;;;;3.22;2.05;;;;;;;12.62;74.40;100979.56;10299077;28;20051;-78
2023/06/07 01:09:42;;;;;;;3.75;2.20;;;;;;;12.59;75.42;100976.56;10285838;28;20058;-78
2023/06/07 01:14:46;;;;;;;3.63;2.22;;;;;;;12.66;76.90;100963.28;10264802;28;20042;-78
2023/06/07 01:19:53;;;;;;;3.47;2.58;;;;;;;12.58;77.17;100961.97;10287262;28;20031;-77
2023/06/07 01:24:56;;;;;;;2.57;1.90;;;;;;;12.49;77.39;100969.16;10306036;28;20050;-77
2023/06/07 01:29:59;;;;;;;4.10;2.20;;;;;;;12.45;77.58;100959.03;10282123;28;20049;-76
2023/06/07 01:35:03;;;;;;;4.00;2.30;;;;;;;12.44;77.79;100952.69;10278281;28;20049;-77
2023/06/07 01:40:06;;;;;;;4.78;2.28;;;;;;;12.45;77.70;100942.50;10301981;28;20054;-76
2023/06/07 01:45:09;;;;;;;3.22;2.30;;;;;;;12.42;76.92;100957.69;10301522;28;20528;-77
2023/06/07 01:50:11;;;;;;;2.35;1.77;;;;;;;12.37;75.94;100961.28;10273619;28;20035;-76
2023/06/07 01:55:14;;;;;;;3.30;1.83;;;;;;;12.37;76.01;100944.78;10307095;28;20050;-76
2023/06/07 02:00:32;;;;;;;4.93;2.30;;;;;;;12.40;76.15;100950.81;10284406;28;20050;-76
2023/06/07 02:05:37;;;;;;;3.28;2.38;;;;;;;12.42;75.29;100956.84;10285828;28;20054;-76
2023/06/07 02:10:39;;;;;;;4.00;2.50;;;;;;;12.49;75.13;100958.16;10248883;28;20045;-76
2023/06/07 02:15:45;;;;;;;3.75;2.22;;;;;;;12.42;75.83;100954.09;10313001;28;20163;-76
2023/06/07 02:20:48;;;;;;;4.10;2.38;;;;;;;12.40;75.98;100956.31;10291162;28;20055;-76
2023/06/07 02:25:50;;;;;;;3.63;2.05;;;;;;;12.44;76.21;100952.69;10281259;29;20426;-75
2023/06/07 02:30:55;;;;;;;5.10;2.55;;;;;;;12.62;76.22;100962.22;10282457;28;20055;-76
2023/06/07 02:35:58;;;;;;;2.60;2.20;;;;;;;12.70;75.71;100961.63;10314914;28;20081;-75
2023/06/07 02:41:00;;;;;;;4.05;2.50;;;;;;;12.64;75.62;100957.22;10313467;28;20082;-76
2023/06/07 02:46:02;;;;;;;3.13;2.15;;;;;;;12.94;74.75;100959.75;10277489;28;20063;-76
2023/06/07 02:51:05;;;;;;;6.05;2.35;;;;;;;13.30;74.74;100964.94;10285089;28;20051;-76
2023/06/07 02:56:08;;;;;;;5.85;2.50;;;;;;;13.80;72.98;100968.25;10281468;28;20047;-77
2023/06/07 03:01:11;;;;;;;4.47;2.25;;;;;;;14.02;71.08;100968.50;10281190;29;20046;-77
2023/06/07 03:06:20;;;;;;;4.53;2.00;;;;;;;14.21;68.58;100976.81;10266769;28;20047;-77
2023/06/07 03:11:23;;;;;;;5.00;2.35;;;;;;;14.25;66.98;100979.81;10266957;28;20043;-76
2023/06/07 03:16:28;;;;;;;4.70;2.40;;;;;;;14.30;66.51;100979.72;10298642;28;20038;-77
2023/06/07 03:21:35;;;;;;;2.80;2.17;;;;;;;14.46;65.90;100972.91;10277264;28;20062;-78
2023/06/07 03:26:41;;;;;;;7.80;2.70;;;;;;;14.76;64.35;100983.47;10269209;29;20047;-76
2023/06/07 03:31:44;;;;;;;3.47;2.05;;;;;;;15.06;63.60;100982.13;10276701;28;20046;-76
2023/06/07 03:36:51;;;;;;;4.13;2.07;;;;;;;15.29;60.91;100974.84;10309977;28;20046;-76
2023/06/07 03:41:54;;;;;;;6.30;2.05;;;;;;;15.28;60.97;100980.66;10290199;28;20050;-76
2023/06/07 03:47:00;;;;;;;3.30;1.50;;;;;;;15.59;59.97;100983.69;10270815;28;20472;-76
2023/06/07 03:52:04;;;;;;;2.72;1.70;;;;;;;15.54;60.13;100992.06;10306587;28;20050;-76
2023/06/07 03:57:08;;;;;;;3.25;1.48;;;;;;;15.76;58.41;100988.63;10297446;28;20047;-75
2023/06/07 04:02:15;;;;;;;2.63;1.42;;;;;;;16.09;57.53;100990.13;10291176;28;20540;-75
2023/06/07 04:07:18;;;;;;;3.40;1.73;;;;;;;16.47;55.97;100984.31;10269720;29;20043;-76
2023/06/07 04:12:21;;;;;;;1.38;1.10;;;;;;;16.11;54.88;100979.56;10294886;28;20034;-77
2023/06/07 04:17:26;;;;;;;2.88;1.40;;;;;;;15.68;56.11;100988.22;10278361;29;20620;-78
2023/06/07 04:22:30;;;;;;;2.20;1.30;;;;;;;16.09;54.52;100990.13;10292769;28;20047;-77
2023/06/07 04:27:34;;;;;;;2.25;1.40;;;;;;;16.47;53.66;100993.44;10291447;28;20597;-77
2023/06/07 04:32:37;;;;;;;1.30;1.08;;;;;;;17.03;51.91;100994.91;10305793;28;20047;-77
2023/06/07 04:37:45;;;;;;;1.70;1.00;;;;;;;16.80;48.49;101007.94;10307262;28;20050;-77
2023/06/07 04:42:55;;;;;;;0.95;0.80;;;;;;;16.81;46.88;100998.47;10304817;28;20065;-77
2023/06/07 04:48:00;;;;;;;1.45;0.80;;;;;;;16.95;45.55;101009.53;10282712;28;20042;-78
2023/06/07 04:53:10;;;;;;;1.95;0.85;;;;;;;17.05;46.26;101006.50;10286161;28;20073;-78
2023/06/07 04:58:16;;;;;;;1.75;0.70;;;;;;;17.47;46.39;101018.19;10266613;29;20043;-78
2023/06/07 05:03:22;;;;;;;4.32;1.20;;;;;;;17.47;44.99;101026.50;10272909;28;20066;-78
2023/06/07 05:08:27;;;;;;;1.73;0.90;;;;;;;17.66;45.25;101034.59;10276665;28;20051;-77
2023/06/07 05:13:30;;;;;;;0.68;0.68;;;;;;;17.68;43.78;101035.94;10269306;28;20062;-78
2023/06/07 05:18:36;;;;;;;1.35;1.00;;;;;;;17.98;43.31;101030.69;10262167;28;20062;-77
2023/06/07 05:23:38;;;;;;;1.10;0.90;;;;;;;18.07;43.19;101037.09;10320901;28;20063;-77
2023/06/07 05:28:41;;;;;;;1.60;0.80;;;;;;;18.35;41.38;101054.31;10305451;28;20055;-76
2023/06/07 05:33:45;;;;;;;0.70;0.60;;;;;;;18.21;40.60;101048.06;10265375;28;20043;-76
2023/06/07 05:38:48;;;;;;;1.10;0.80;;;;;;;18.13;40.24;101046.09;10291293;28;20057;-78
2023/06/07 05:43:51;;;;;;;0.73;0.60;;;;;;;18.20;39.93;101049.19;10320306;28;20054;-78
2023/06/07 05:48:53;;;;;;;1.90;0.70;;;;;;;18.51;38.11;101060.22;10289188;28;20506;-77
2023/06/07 05:54:00;;;;;;;2.15;0.65;;;;;;;18.54;37.61;101056.81;10334015;28;20049;-77
2023/06/07 05:59:02;;;;;;;1.98;0.70;;;;;;;18.83;35.68;101059.81;10297674;28;20051;-78
2023/06/07 06:04:04;;;;;;;0.65;0.65;;;;;;;19.26;37.18;101067.31;10303322;28;20410;-78
2023/06/07 06:09:06;;;;;;;0.85;0.80;;;;;;;19.13;37.74;101065.53;10304299;28;20061;-79
2023/06/07 06:14:09;;;;;;;2.13;0.70;;;;;;;19.24;36.62;101080.75;10312900;28;20051;-77
2023/06/07 06:19:12;;;;;;;0.70;0.60;;;;;;;19.04;35.17;101078.63;10282179;28;20046;-78
2023/06/07 06:24:14;;;;;;;1.35;0.73;;;;;;;19.47;34.47;101079.41;10264644;29;20498;-78
2023/06/07 06:29:17;;;;;;;2.97;0.80;;;;;;;20.03;34.27;101085.00;10270280;28;20050;-77
2023/06/07 06:34:19;;;;;;;2.53;0.63;;;;;;;19.97;34.05;101078.81;10267695;29;20074;-78
2023/06/07 06:39:23;;;;;;;1.40;1.00;;;;;;;19.95;33.52;101074.69;10318000;28;20047;-78
2023/06/07 06:44:25;;;;;;;2.15;0.80;;;;;;;20.04;33.86;101076.31;10286453;28;20062;-79
2023/06/07 06:49:29;;;;;;;0.68;0.60;;;;;;;20.69;34.28;101072.22;10307152;28;20047;-78
2023/06/07 06:54:31;;;;;;;1.27;0.70;;;;;;;20.75;33.70;101089.56;10328071;28;20517;-79
2023/06/07 06:59:33;;;;;;;0.73;0.60;;;;;;;21.11;32.13;101099.28;10328368;28;20047;-79
2023/06/07 07:04:35;;;;;;;1.52;0.68;;;;;;;20.95;31.22;101101.88;10314103;28;20062;-79
2023/06/07 07:09:38;;;;;;;0.70;0.60;;;;;;;21.07;31.63;101113.94;10322598;28;20047;-79
2023/06/07 07:14:40;;;;;;;3.45;0.80;;;;;;;21.14;33.13;101102.22;10315478;28;20134;-80
2023/06/07 07:19:42;;;;;;;0.70;0.55;;;;;;;21.98;32.44;101103.69;10294402;28;20039;-82
2023/06/07 07:24:44;;;;;;;0.60;0.60;;;;;;;21.74;32.44;101106.44;10278107;28;20054;-81
2023/06/07 07:29:47;;;;;;;1.65;0.60;;;;;;;21.63;32.76;101110.81;10289818;28;20055;-81
2023/06/07 07:34:49;;;;;;;0.75;0.52;;;;;;;21.51;32.79;101113.56;10294685;28;20047;-81
2023/06/07 07:39:51;;;;;;;1.63;0.55;;;;;;;21.43;32.45;101111.69;10304533;28;20240;-80
2023/06/07 07:44:53;;;;;;;0.70;0.68;;;;;;;21.88;31.40;101115.31;10292273;28;20059;-78
2023/06/07 07:49:56;;;;;;;0.57;0.40;;;;;;;21.66;30.78;101124.09;10315194;28;20051;-80
2023/06/07 07:54:58;;;;;;;1.70;0.80;;;;;;;21.37;31.52;101125.03;10325581;28;20422;-80
2023/06/07 08:00:01;;;;;;;0.63;0.63;;;;;;;21.87;31.00;101118.47;10325413;28;20051;-81
2023/06/07 08:05:05;;;;;;;1.08;0.70;;;;;;;22.06;30.47;101126.31;10290718;28;20114;-82
2023/06/07 08:10:08;;;;;;;2.20;0.70;;;;;;;21.87;32.88;101121.25;10307792;28;20050;-80
2023/06/07 08:15:10;;;;;;;1.85;0.68;;;;;;;21.98;31.73;101139.19;10303860;28;20066;-83
2023/06/07 08:20:13;;;;;;;0.40;0.40;;;;;;;22.32;31.56;101146.38;10315332;28;20148;-80
2023/06/07 08:25:15;;;;;;;1.02;0.75;;;;;;;21.87;33.80;101152.81;10300679;28;20038;-79
2023/06/07 08:30:17;;;;;;;0.98;0.60;;;;;;;21.35;34.47;101153.31;10305619;28;20038;-79
2023/06/07 08:35:19;;;;;;;1.58;0.65;;;;;;;21.60;34.66;101150.63;10314813;28;20509;-79
2023/06/07 08:40:22;;;;;;;0.88;0.60;;;;;;;22.18;34.47;101155.09;10325043;28;20147;-78
2023/06/07 08:45:24;;;;;;;0.85;0.65;;;;;;;22.03;34.38;101163.28;10322475;28;20062;-78
2023/06/07 08:50:27;;;;;;;2.05;0.75;;;;;;;21.55;34.88;101167.59;10304562;28;20042;-78
2023/06/07 08:55:30;;;;;;;1.00;0.57;;;;;;;21.17;35.28;101188.03;10298444;28;20043;-79
2023/06/07 09:00:32;;;;;;;1.27;0.80;;;;;;;21.26;36.06;101180.47;10316335;28;20059;-79
2023/06/07 09:05:35;;;;;;;1.02;0.77;;;;;;;21.63;36.42;101184.25;10317929;28;20054;-81
2023/06/07 09:10:37;;;;;;;2.85;0.47;;;;;;;21.46;36.38;101189.16;10307651;28;20058;-76
2023/06/07 09:15:41;;;;;;;0.50;0.50;;;;;;;20.92;38.06;101194.63;10304349;28;20054;-77
2023/06/07 09:20:43;;;;;;;2.30;0.80;;;;;;;21.14;37.26;101199.88;10286913;28;20055;-76
2023/06/07 09:25:45;;;;;;;1.45;0.50;;;;;;;20.52;38.75;101195.00;10265529;29;20054;-75
2023/06/07 09:30:51;;;;;;;0.68;0.60;;;;;;;19.53;40.53;101202.53;10285018;28;20035;-75
2023/06/07 09:36:08;;;;;;;1.35;0.60;;;;;;;19.10;42.44;101203.34;10322422;28;20049;-75
2023/06/07 09:41:10;;;;;;;0.60;0.60;;;;;;;19.07;43.32;101208.69;10280787;28;21476;-76
2023/06/07 09:46:19;;;;;;;0.60;0.60;;;;;;;18.67;43.83;101222.66;10288745;28;20043;-76
2023/06/07 09:51:24;;;;;;;1.35;0.70;;;;;;;18.50;44.70;101219.78;10319222;28;20059;-75
2023/06/07 09:56:27;;;;;;;1.90;0.70;;;;;;;18.23;44.75;101227.19;10281891;29;20410;-75
2023/06/07 10:01:42;;;;;;;1.52;0.68;;;;;;;18.30;44.90;101238.66;10265124;29;20050;-75
2023/06/07 10:06:45;;;;;;;1.15;0.60;;;;;;;18.41;45.59;101243.97;10304871;28;20051;-75
2023/06/07 10:11:53;;;;;;;2.42;0.70;;;;;;;18.35;45.58;101252.41;10292294;28;20568;-75
2023/06/07 10:17:01;;;;;;;1.88;0.60;;;;;;;18.08;45.47;101249.81;10303857;28;20042;-74
2023/06/07 10:22:05;;;;;;;1.45;0.80;;;;;;;18.05;46.43;101247.66;10252105;28;20051;-75
2023/06/07 10:27:13;;;;;;;0.80;0.50;;;;;;;17.89;46.83;101257.50;10273853;28;20059;-75
2023/06/07 10:32:25;;;;;;;0.50;0.50;;;;;;;17.82;46.78;101252.38;10312683;28;20042;-74
2023/06/07 10:37:30;;;;;;;2.40;0.70;;;;;;;17.87;46.99;101263.34;10280875;28;20043;-75
2023/06/07 10:42:33;;;;;;;1.10;0.60;;;;;;;17.92;46.54;101259.66;10329507;28;20544;-77
2023/06/07 10:47:35;;;;;;;2.15;0.82;;;;;;;17.45;47.14;101273.75;10312055;28;20134;-74
2023/06/07 10:52:54;;;;;;;0.50;0.50;;;;;;;17.24;47.44;101277.28;10311469;28;20089;-76
2023/06/07 10:57:56;;;;;;;2.40;0.60;;;;;;;17.16;48.02;101273.28;10310631;28;20050;-76
2023/06/07 11:03:04;;;;;;;1.35;0.50;;;;;;;17.15;47.31;101268.88;10327857;28;20438;-76
2023/06/07 11:08:27;;;;;;;1.50;0.63;;;;;;;17.07;47.87;101289.84;10272809;29;20043;-76
2023/06/07 11:13:38;;;;;;;1.27;0.70;;;;;;;17.30;47.26;101281.59;10276133;29;20383;-76
2023/06/07 11:19:02;;;;;;;1.45;0.70;;;;;;;17.15;47.67;101282.75;10288212;29;20529;-76
2023/06/07 11:24:10;;;;;;;0.90;0.60;;;;;;;17.00;47.82;101291.38;10287647;28;20410;-74
2023/06/07 11:29:15;;;;;;;2.42;0.70;;;;;;;16.85;48.86;101296.13;10287454;29;20054;-73
2023/06/07 11:34:17;;;;;;;1.15;0.60;;;;;;;17.03;48.44;101294.38;10286343;28;20039;-74
2023/06/07 11:39:20;;;;;;;1.20;0.60;;;;;;;17.25;47.40;101301.13;10290983;28;20156;-75
2023/06/07 11:44:22;;;;;;;1.58;0.52;;;;;;;16.90;47.61;101306.28;10286168;29;20067;-74
2023/06/07 11:49:24;;;;;;;0.70;0.50;;;;;;;16.67;48.39;101304.50;10261720;28;20034;-77
2023/06/07 11:54:27;;;;;;;2.88;0.65;;;;;;;16.94;48.74;101301.75;10326270;28;20414;-74
2023/06/07 11:59:29;;;;;;;1.40;1.02;;;;;;;17.13;48.20;101298.88;10303418;28;20501;-74
2023/06/07 12:04:31;;;;;;;5.43;0.80;;;;;;;17.09;48.71;101304.22;10292720;28;20046;-76
2023/06/07 12:09:41;;;;;;;3.13;0.70;;;;;;;17.16;48.64;101314.88;10284791;29;20050;-76
2023/06/07 12:14:46;;;;;;;1.02;0.60;;;;;;;17.06;48.32;101315.94;10311389;28;20043;-75
2023/06/07 12:19:48;;;;;;;0.98;0.65;;;;;;;16.92;48.71;101309.56;10327279;28;20046;-77
2023/06/07 12:24:50;;;;;;;0.82;0.60;;;;;;;17.07;48.33;101320.34;10292126;28;20046;-74
2023/06/07 12:29:53;;;;;;;0.85;0.52;;;;;;;16.89;49.00;101326.81;10292607;28;20425;-74
2023/06/07 12:34:59;;;;;;;1.85;0.70;;;;;;;16.58;48.87;101332.88;10323331;28;20553;-75
2023/06/07 12:40:04;;;;;;;2.03;0.68;;;;;;;16.46;48.35;101326.16;10316958;28;20035;-79
2023/06/07 12:45:07;;;;;;;2.28;0.60;;;;;;;16.50;48.59;101330.81;10294139;28;20063;-78
2023/06/07 12:50:09;;;;;;;1.35;0.60;;;;;;;16.55;48.91;101316.88;10303648;28;20054;-77
2023/06/07 12:55:12;;;;;;;3.78;0.60;;;;;;;16.68;48.25;101328.31;10311592;28;20051;-78
2023/06/07 13:00:16;;;;;;;0.90;0.70;;;;;;;16.54;48.09;101325.50;10323736;28;20043;-78
2023/06/07 13:05:20;;;;;;;1.38;0.60;;;;;;;16.32;48.29;101323.38;10291053;28;20042;-77
2023/06/07 13:10:24;;;;;;;0.90;0.60;;;;;;;16.33;48.61;101327.81;10302020;28;20047;-77
2023/06/07 13:15:26;;;;;;;0.40;0.40;;;;;;;16.54;47.51;101317.19;10290761;28;20151;-77
2023/06/07 13:20:28;;;;;;;1.10;0.80;;;;;;;16.52;47.39;101319.44;10292478;28;20609;-77
2023/06/07 13:25:31;;;;;;;0.98;0.60;;;;;;;16.62;47.55;101323.94;10318619;28;20050;-78
2023/06/07 13:30:33;;;;;;;0.77;0.60;;;;;;;16.76;46.98;101316.53;10313847;28;20054;-77
2023/06/07 13:35:35;;;;;;;0.70;0.60;;;;;;;16.52;46.84;101314.72;10304625;28;20057;-78
2023/06/07 13:40:37;;;;;;;0.60;0.60;;;;;;;16.45;47.20;101313.44;10310861;28;20058;-79
2023/06/07 13:45:40;;;;;;;3.88;0.73;;;;;;;16.40;46.94;101321.84;10291513;28;20170;-79
2023/06/07 13:50:48;;;;;;;1.65;0.50;;;;;;;16.25;46.82;101326.53;10296292;28;20051;-81
2023/06/07 13:55:51;;;;;;;0.77;0.52;;;;;;;16.21;47.47;101317.19;10302572;28;20043;-79
2023/06/07 14:00:53;;;;;;;1.77;0.60;;;;;;;16.18;47.03;101319.75;10319934;28;20035;-81
2023/06/07 14:05:56;;;;;;;0.73;0.70;;;;;;;16.06;48.01;101324.91;10305050;28;20054;-80
2023/06/07 14:10:58;;;;;;;1.60;0.60;;;;;;;16.23;47.87;101326.00;10307147;28;20051;-79
2023/06/07 14:16:00;;;;;;;0.45;0.40;;;;;;;16.16;48.19;101324.75;10297695;28;20038;-83
2023/06/07 14:21:03;;;;;;;1.10;0.80;;;;;;;15.93;48.26;101320.97;10320004;28;20520;-78
2023/06/07 14:26:05;;;;;;;2.08;0.93;;;;;;;15.76;48.80;101321.50;10294635;28;20145;-80
2023/06/07 14:31:08;;;;;;;1.30;0.55;;;;;;;15.53;49.52;101316.81;10321196;28;20655;-80
2023/06/07 14:36:11;;;;;;;0.75;0.50;;;;;;;15.51;50.25;101330.94;10299705;28;20141;-82
2023/06/07 14:41:13;;;;;;;1.63;0.60;;;;;;;15.54;50.26;101327.59;10318519;28;20066;-84
2023/06/07 14:46:16;;;;;;;0.70;0.47;;;;;;;15.44;50.31;101337.94;10295909;28;20043;-78
2023/06/07 14:51:22;;;;;;;3.33;0.60;;;;;;;15.47;50.41;101331.84;10297560;28;20062;-80
2023/06/07 14:56:25;;;;;;;1.98;0.60;;;;;;;15.39;50.74;101328.59;10320170;28;20062;-81
2023/06/07 15:01:27;;;;;;;0.60;0.60;;;;;;;15.60;50.13;101343.00;10301145;28;20069;-86
2023/06/07 15:06:29;;;;;;;2.13;0.60;;;;;;;15.67;49.71;101345.44;10322654;28;20051;-85
2023/06/07 15:11:31;;;;;;;1.60;0.65;;;;;;;15.58;50.21;101336.09;10303216;28;20429;-85
2023/06/07 15:16:33;;;;;;;0.40;0.40;;;;;;;15.31;51.21;101345.88;10327466;28;20051;-85
2023/06/07 15:21:36;;;;;;;0.90;0.63;;;;;;;15.11;52.45;101335.06;10324960;28;20043;-84
2023/06/07 15:26:40;;;;;;;0.98;0.60;;;;;;;15.18;52.57;101343.81;10327428;28;20058;-84
2023/06/07 15:31:43;;;;;;;1.08;0.55;;;;;;;15.22;53.38;101339.34;10322473;28;20502;-85
2023/06/07 15:36:45;;;;;;;3.13;0.60;;;;;;;15.14;53.12;101342.75;10328635;28;20058;-85
2023/06/07 15:41:52;;;;;;;3.20;0.60;;;;;;;15.07;52.44;101345.03;10327018;28;20066;-84
2023/06/07 15:46:54;;;;;;;0.60;0.60;;;;;;;15.01;53.15;101341.53;10294126;28;20071;-85
2023/06/07 15:51:57;;;;;;;2.08;0.50;;;;;;;15.15;52.50;101346.34;10327335;28;20038;-85
2023/06/07 15:56:59;;;;;;;1.63;1.45;;;;;;;15.06;51.02;101340.63;10309794;28;20043;-86
2023/06/07 16:02:02;;;;;;;0.55;0.45;;;;;;;14.98;51.08;101349.59;10321801;28;20042;-86
2023/06/07 16:07:04;;;;;;;1.25;0.40;;;;;;;14.89;50.80;101349.38;10291322;28;20530;-84
2023/06/07 16:12:06;;;;;;;0.38;0.38;;;;;;;14.76;50.78;101350.91;10310939;28;20057;-83
2023/06/07 16:17:09;;;;;;;0.70;0.43;;;;;;;14.57;51.29;101344.44;10326512;28;20039;-84
2023/06/07 16:22:11;;;;;;;2.60;0.65;;;;;;;14.56;51.89;101342.81;10313248;28;20136;-81
2023/06/07 16:27:13;;;;;;;0.90;0.70;;;;;;;14.34;51.70;101350.72;10322211;28;20050;-79
2023/06/07 16:32:15;;;;;;;0.95;0.45;;;;;;;14.27;51.90;101348.31;10328984;28;20429;-80
2023/06/07 16:37:17;;;;;;;0.90;0.57;;;;;;;14.18;52.18;101348.06;10308547;28;20043;-81
2023/06/07 16:42:20;;;;;;;0.80;0.60;;;;;;;14.10;52.99;101356.97;10322519;28;20055;-81
2023/06/07 16:47:22;;;;;;;3.10;0.55;;;;;;;14.02;53.12;101359.50;10297725;28;20047;-79
2023/06/07 16:52:24;;;;;;;0.60;0.60;;;;;;;14.08;53.81;101359.22;10321160;28;20058;-80
2023/06/07 16:57:26;;;;;;;1.58;0.70;;;;;;;14.01;53.79;101353.16;10325750;28;20390;-83
2023/06/07 17:02:28;;;;;;;1.23;0.70;;;;;;;14.05;54.18;101351.47;10305360;28;20523;-84
2023/06/07 17:07:31;;;;;;;0.93;0.82;;;;;;;13.96;54.07;101355.16;10290269;28;20049;-85
2023/06/07 17:12:33;;;;;;;1.58;0.93;;;;;;;13.95;54.34;101354.31;10299059;28;20452;-83
2023/06/07 17:17:35;;;;;;;1.98;0.80;;;;;;;13.88;55.21;101354.66;10313357;28;20039;-85
2023/06/07 17:22:37;;;;;;;2.03;0.73;;;;;;;13.73;56.14;101352.00;10316102;28;20047;-86
2023/06/07 17:27:39;;;;;;;0.90;0.65;;;;;;;13.57;56.38;101351.25;10292913;28;20047;-84
2023/06/07 17:32:42;;;;;;;1.65;0.70;;;;;;;13.49;57.52;101345.50;10301051;28;20043;-84
2023/06/07 17:37:44;;;;;;;0.88;0.75;;;;;;;13.39;58.50;101342.78;10305706;28;20055;-82
2023/06/07 17:42:46;;;;;;;0.70;0.60;;;;;;;13.34;59.14;101348.31;10305449;28;20450;-82
2023/06/07 17:47:50;;;;;;;2.38;0.75;;;;;;;13.32;60.11;101356.88;10311796;28;20050;-81
2023/06/07 17:52:53;;;;;;;1.23;0.52;;;;;;;13.30;60.34;101353.56;10288244;28;20050;-79
2023/06/07 17:57:55;;;;;;;1.77;0.80;;;;;;;13.24;61.40;101361.03;10315147;28;20036;-81
2023/06/07 18:02:57;;;;;;;1.85;0.70;;;;;;;13.18;61.84;101353.88;10302122;28;20051;-82
2023/06/07 18:08:00;;;;;;;1.73;0.70;;;;;;;13.05;62.26;101357.22;10300944;28;20059;-81
2023/06/07 18:13:03;;;;;;;0.95;0.82;;;;;;;13.01;63.09;101366.31;10321548;28;20035;-80
2023/06/07 18:18:05;;;;;;;1.13;0.65;;;;;;;12.99;63.12;101363.84;10318683;28;20045;-80
2023/06/07 18:23:11;;;;;;;5.47;0.90;;;;;;;12.90;63.22;101355.31;10304486;28;20422;-81
2023/06/07 18:28:13;;;;;;;0.90;0.70;;;;;;;12.83;63.84;101359.47;10271024;28;20046;-81
2023/06/07 18:33:16;;;;;;;1.00;0.90;;;;;;;12.81;64.99;101362.50;10296304;28;20421;-79
2023/06/07 18:38:18;;;;;;;1.73;1.00;;;;;;;12.79;64.46;101361.94;10307328;28;20497;-81
2023/06/07 18:43:20;;;;;;;1.95;1.20;;;;;;;12.77;64.84;101361.41;10316185;28;20059;-80
2023/06/07 18:48:23;;;;;;;2.50;1.08;;;;;;;12.67;65.68;101362.25;10307476;28;20050;-80
2023/06/07 18:53:26;;;;;;;2.25;1.10;;;;;;;12.65;65.87;101369.13;10300801;28;20039;-79
2023/06/07 18:58:28;;;;;;;2.53;1.30;;;;;;;12.58;67.02;101369.41;10274915;28;20042;-84
2023/06/07 19:03:31;;;;;;;2.72;1.23;;;;;;;12.61;66.64;101376.31;10287363;28;20387;-82
2023/06/07 19:08:33;;;;;;;2.42;1.50;;;;;;;12.55;66.66;101380.16;10327670;28;20042;-77
2023/06/07 19:13:35;;;;;;;2.53;1.30;;;;;;;12.44;67.61;101368.31;10321610;28;20540;-77
2023/06/07 19:18:39;;;;;;;1.77;1.10;;;;;;;12.35;67.60;101378.25;10304794;28;20049;-77
2023/06/07 19:23:41;;;;;;;9.85;4.07;;;;;;;12.35;68.54;101375.50;10291894;28;20065;-80
2023/06/07 19:29:03;;;;;;;3.13;1.60;;;;;;;12.30;68.43;101378.22;10305454;28;20054;-80
2023/06/07 19:34:45;;;;;;;1.73;1.20;;;;;;;12.21;69.10;101375.22;10314893;28;20051;-82
2023/06/07 19:39:48;;;;;;;1.45;0.98;;;;;;;12.21;68.83;101380.72;10296290;28;20039;-80
2023/06/07 19:44:50;;;;;;;2.28;0.85;;;;;;;12.14;69.78;101384.81;10314981;28;20091;-79
2023/06/07 19:49:52;;;;;;;2.72;1.90;;;;;;;12.06;70.04;101389.78;10300109;28;20045;-80
2023/06/07 19:54:55;;;;;;;1.63;1.00;;;;;;;11.95;69.77;101392.75;10322677;28;20047;-77
2023/06/07 20:00:17;;;;;;;2.22;1.48;;;;;;;11.80;70.73;101395.47;10314638;28;20050;-79
2023/06/07 20:05:39;;;;;;;2.38;1.42;;;;;;;11.70;71.48;101388.00;10318896;28;20137;-79
2023/06/07 20:11:00;;;;;;;2.13;1.35;;;;;;;11.65;71.50;101386.06;10309197;28;20540;-78
2023/06/07 20:16:21;;;;;;;1.83;1.00;;;;;;;11.57;71.76;101392.06;10304231;28;20523;-78
2023/06/07 20:21:26;;;;;;;4.53;1.52;;;;;;;11.49;72.93;101392.59;10304880;28;20061;-78
2023/06/07 20:26:28;;;;;;;1.42;1.10;;;;;;;11.41;72.52;101390.38;10306783;28;20054;-78
2023/06/07 20:31:31;;;;;;;2.90;1.30;;;;;;;11.40;72.89;101391.47;10324600;28;20045;-78
2023/06/07 20:36:33;;;;;;;3.67;2.28;;;;;;;11.38;73.74;101399.16;10305361;28;20047;-78
2023/06/07 20:41:35;;;;;;;2.08;1.10;;;;;;;11.36;73.38;101390.34;10284076;28;20055;-78
2023/06/07 20:46:37;;;;;;;1.10;0.85;;;;;;;11.33;73.38;101390.88;10308842;28;20046;-78
2023/06/07 20:51:41;;;;;;;1.48;1.00;;;;;;;11.34;73.85;101398.03;10302193;28;20131;-78
2023/06/07 20:56:43;;;;;;;1.00;0.90;;;;;;;11.31;74.54;101393.09;10299514;28;20037;-77
2023/06/07 21:01:51;;;;;;;2.30;0.80;;;;;;;11.25;74.78;101383.13;10313948;28;20038;-78
2023/06/07 21:06:53;;;;;;;;;;;;;;;11.22;74.59;101390.00;10284761;28;20043;-78
2023/06/07 21:11:55;;;;;;;1.98;0.80;;;;;;;11.23;74.71;101390.81;10311072;28;20521;-77
2023/06/07 21:16:57;;;;;;;3.58;1.95;;;;;;;11.19;74.38;101390.53;10315660;28;20051;-76
2023/06/07 21:21:59;;;;;;;3.15;1.70;;;;;;;11.12;74.63;101392.72;10309274;28;20043;-77
2023/06/07 21:27:02;;;;;;;1.88;1.00;;;;;;;11.12;74.66;101396.28;10316138;28;20057;-77
2023/06/07 21:32:05;;;;;;;0.70;0.70;;;;;;;11.07;75.60;101398.16;10319548;28;20505;-79
2023/06/07 21:37:09;;;;;;;2.90;0.90;;;;;;;11.13;75.60;101389.69;10295924;28;20134;-79
2023/06/07 21:42:12;;;;;;;2.58;0.77;;;;;;;11.20;75.39;101396.84;10294440;28;20058;-77
2023/06/07 21:47:14;;;;;;;4.68;0.80;;;;;;;11.21;75.68;101387.53;10307563;28;20043;-77
2023/06/07 21:52:17;;;;;;;2.17;1.42;;;;;;;11.17;75.59;101379.00;10310937;28;20035;-79
2023/06/07 21:57:19;;;;;;;1.55;1.02;;;;;;;11.15;74.98;101379.25;10318807;28;20054;-79
2023/06/07 22:02:21;;;;;;;1.75;1.20;;;;;;;11.12;75.47;101377.06;10310865;28;20054;-79
2023/06/07 22:07:28;;;;;;;2.05;0.95;;;;;;;11.17;75.24;101371.59;10318802;28;20536;-79
2023/06/07 22:12:31;;;;;;;1.00;0.90;;;;;;;11.18;74.87;101375.16;10320369;28;20039;-79
2023/06/07 22:17:33;;;;;;;1.83;1.38;;;;;;;11.18;74.79;101380.66;10311510;28;20039;-79
2023/06/07 22:22:35;;;;;;;6.35;1.17;;;;;;;11.17;74.61;101373.50;10327014;28;20568;-83
2023/06/07 22:27:37;;;;;;;1.08;0.90;;;;;;;11.20;75.38;101375.72;10329664;28;20062;-77
2023/06/07 22:32:40;;;;;;;2.45;1.30;;;;;;;11.18;74.67;101369.66;10303659;28;20053;-77
2023/06/07 22:37:42;;;;;;;2.13;0.90;;;;;;;11.08;75.18;101370.41;10316657;28;20129;-78
2023/06/07 22:42:45;;;;;;;2.35;1.02;;;;;;;11.05;76.09;101372.88;10329024;28;20055;-77
2023/06/07 22:47:49;;;;;;;5.65;1.10;;;;;;;11.05;75.75;101373.72;10321861;28;20050;-77
2023/06/07 22:52:52;;;;;;;1.90;1.10;;;;;;;11.06;76.02;101363.53;10316698;28;20429;-77
2023/06/07 22:57:55;;;;;;;1.25;0.90;;;;;;;11.05;76.47;101362.72;10319330;28;20039;-77
2023/06/07 23:02:57;;;;;;;1.80;1.08;;;;;;;11.03;76.44;101364.91;10326533;28;20043;-75
2023/06/07 23:07:59;;;;;;;3.13;1.05;;;;;;;11.11;77.06;101358.94;10322608;28;20055;-76
2023/06/07 23:13:06;;;;;;;2.88;1.20;;;;;;;11.09;76.75;101366.56;10317144;28;20406;-79
2023/06/07 23:18:09;;;;;;;1.33;1.00;;;;;;;11.02;77.40;101359.69;10300718;28;20059;-80